sensor_id;sensor_type;location;lat;lon;timestamp;P1;durP1;ratioP1;P2;durP2;ratioP2
19059;SDS011;9663;48.996;8.334;2022-10-13T00:00:26;6.75;;;2.20;;
19059;SDS011;9663;48.996;8.334;2022-10-13T00:02:52;6.05;;;2.35;;
19059;SDS011;9663;48.996;8.334;2022-10-13T00:05:18;5.57;;;2.28;;
19059;SDS011;9663;48.996;8.334;2022-10-13T00:07:44;6.97;;;2.67;;
19059;SDS011;9663;48.996;8.334;2022-10-13T00:10:10;4.72;;;2.20;;
19059;SDS011;9663;48.996;8.334;2022-10-13T00:12:36;5.18;;;2.42;;
19059;SDS011;9663;48.996;8.334;2022-10-13T00:15:03;4.38;;;2.20;;
19059;SDS011;9663;48.996;8.334;2022-10-13T00:17:31;4.72;;;1.98;;
19059;SDS011;9663;48.996;8.334;2022-10-13T00:19:57;5.25;;;2.30;;
19059;SDS011;9663;48.996;8.334;2022-10-13T00:22:23;7.00;;;2.33;;
19059;SDS011;9663;48.996;8.334;2022-10-13T00:24:52;5.97;;;2.40;;
19059;SDS011;9663;48.996;8.334;2022-10-13T00:27:18;5.20;;;2.10;;
19059;SDS011;9663;48.996;8.334;2022-10-13T00:29:44;4.90;;;2.17;;
19059;SDS011;9663;48.996;8.334;2022-10-13T00:32:10;5.22;;;2.40;;
19059;SDS011;9663;48.996;8.334;2022-10-13T00:34:36;8.82;;;2.17;;
19059;SDS011;9663;48.996;8.334;2022-10-13T00:37:03;6.55;;;2.45;;
19059;SDS011;9663;48.996;8.334;2022-10-13T00:39:29;8.05;;;2.80;;
19059;SDS011;9663;48.996;8.334;2022-10-13T00:41:56;4.80;;;2.35;;
19059;SDS011;9663;48.996;8.334;2022-10-13T00:47:35;6.20;;;2.67;;
19059;SDS011;9663;48.996;8.334;2022-10-13T00:50:08;5.20;;;2.60;;
19059;SDS011;9663;48.996;8.334;2022-10-13T00:52:40;5.63;;;2.60;;
19059;SDS011;9663;48.996;8.334;2022-10-13T00:55:07;6.28;;;3.20;;
19059;SDS011;9663;48.996;8.334;2022-10-13T00:57:38;6.30;;;2.70;;
19059;SDS011;9663;48.996;8.334;2022-10-13T01:00:07;5.30;;;2.50;;
19059;SDS011;9663;48.996;8.334;2022-10-13T01:02:35;4.70;;;2.08;;
19059;SDS011;9663;48.996;8.334;2022-10-13T01:05:03;5.15;;;2.45;;
19059;SDS011;9663;48.996;8.334;2022-10-13T01:07:31;4.90;;;2.30;;
19059;SDS011;9663;48.996;8.334;2022-10-13T01:09:59;5.47;;;2.60;;
19059;SDS011;9663;48.996;8.334;2022-10-13T01:12:34;5.05;;;2.30;;
19059;SDS011;9663;48.996;8.334;2022-10-13T01:15:14;4.63;;;1.90;;
19059;SDS011;9663;48.996;8.334;2022-10-13T01:27:00;5.25;;;2.10;;
19059;SDS011;9663;48.996;8.334;2022-10-13T01:33:00;5.65;;;1.88;;
19059;SDS011;9663;48.996;8.334;2022-10-13T01:35:50;4.03;;;1.90;;
19059;SDS011;9663;48.996;8.334;2022-10-13T01:41:12;4.63;;;2.10;;
19059;SDS011;9663;48.996;8.334;2022-10-13T01:43:54;4.13;;;2.00;;
19059;SDS011;9663;48.996;8.334;2022-10-13T01:46:34;4.95;;;2.20;;
19059;SDS011;9663;48.996;8.334;2022-10-13T01:49:04;4.40;;;2.13;;
19059;SDS011;9663;48.996;8.334;2022-10-13T01:51:36;4.30;;;1.95;;
19059;SDS011;9663;48.996;8.334;2022-10-13T01:54:04;4.45;;;1.95;;
19059;SDS011;9663;48.996;8.334;2022-10-13T01:56:30;4.70;;;2.20;;
19059;SDS011;9663;48.996;8.334;2022-10-13T01:58:56;4.50;;;2.10;;
19059;SDS011;9663;48.996;8.334;2022-10-13T02:04:10;4.13;;;1.85;;
19059;SDS011;9663;48.996;8.334;2022-10-13T02:06:51;4.25;;;1.88;;
19059;SDS011;9663;48.996;8.334;2022-10-13T02:09:34;4.32;;;2.15;;
19059;SDS011;9663;48.996;8.334;2022-10-13T02:15:17;3.60;;;1.77;;
19059;SDS011;9663;48.996;8.334;2022-10-13T02:17:49;4.50;;;2.10;;
19059;SDS011;9663;48.996;8.334;2022-10-13T02:20:16;5.38;;;2.25;;
19059;SDS011;9663;48.996;8.334;2022-10-13T02:22:45;4.35;;;2.08;;
19059;SDS011;9663;48.996;8.334;2022-10-13T02:25:17;4.65;;;2.30;;
19059;SDS011;9663;48.996;8.334;2022-10-13T02:27:42;5.70;;;2.33;;
19059;SDS011;9663;48.996;8.334;2022-10-13T02:30:08;4.50;;;2.20;;
19059;SDS011;9663;48.996;8.334;2022-10-13T02:32:43;4.40;;;2.10;;
19059;SDS011;9663;48.996;8.334;2022-10-13T02:35:09;4.93;;;2.28;;
19059;SDS011;9663;48.996;8.334;2022-10-13T02:37:34;4.80;;;2.03;;
19059;SDS011;9663;48.996;8.334;2022-10-13T02:40:00;4.75;;;2.35;;
19059;SDS011;9663;48.996;8.334;2022-10-13T02:42:26;5.32;;;1.95;;
19059;SDS011;9663;48.996;8.334;2022-10-13T02:44:51;4.30;;;2.08;;
19059;SDS011;9663;48.996;8.334;2022-10-13T02:47:17;4.97;;;2.40;;
19059;SDS011;9663;48.996;8.334;2022-10-13T02:49:43;4.90;;;2.20;;
19059;SDS011;9663;48.996;8.334;2022-10-13T02:52:08;4.75;;;2.20;;
19059;SDS011;9663;48.996;8.334;2022-10-13T02:54:34;5.85;;;2.47;;
19059;SDS011;9663;48.996;8.334;2022-10-13T02:56:59;7.32;;;2.10;;
19059;SDS011;9663;48.996;8.334;2022-10-13T02:59:25;4.40;;;2.28;;
19059;SDS011;9663;48.996;8.334;2022-10-13T03:01:51;4.28;;;2.10;;
19059;SDS011;9663;48.996;8.334;2022-10-13T03:04:16;4.40;;;2.33;;
19059;SDS011;9663;48.996;8.334;2022-10-13T03:06:42;4.88;;;2.50;;
19059;SDS011;9663;48.996;8.334;2022-10-13T03:09:08;5.43;;;2.50;;
19059;SDS011;9663;48.996;8.334;2022-10-13T03:11:34;5.03;;;2.53;;
19059;SDS011;9663;48.996;8.334;2022-10-13T03:14:00;4.20;;;1.98;;
19059;SDS011;9663;48.996;8.334;2022-10-13T03:16:25;5.28;;;2.25;;
19059;SDS011;9663;48.996;8.334;2022-10-13T03:18:51;4.82;;;2.58;;
19059;SDS011;9663;48.996;8.334;2022-10-13T03:21:16;5.47;;;2.17;;
19059;SDS011;9663;48.996;8.334;2022-10-13T03:23:42;5.10;;;2.25;;
19059;SDS011;9663;48.996;8.334;2022-10-13T03:26:08;5.85;;;2.08;;
19059;SDS011;9663;48.996;8.334;2022-10-13T03:28:34;5.38;;;2.10;;
19059;SDS011;9663;48.996;8.334;2022-10-13T03:31:00;4.53;;;2.10;;
19059;SDS011;9663;48.996;8.334;2022-10-13T03:33:32;3.97;;;2.00;;
19059;SDS011;9663;48.996;8.334;2022-10-13T03:36:00;5.15;;;2.08;;
19059;SDS011;9663;48.996;8.334;2022-10-13T03:38:30;5.68;;;2.20;;
19059;SDS011;9663;48.996;8.334;2022-10-13T03:41:03;4.45;;;2.22;;
19059;SDS011;9663;48.996;8.334;2022-10-13T03:43:30;4.25;;;2.00;;
19059;SDS011;9663;48.996;8.334;2022-10-13T03:45:57;4.78;;;1.77;;
19059;SDS011;9663;48.996;8.334;2022-10-13T03:48:24;4.25;;;1.98;;
19059;SDS011;9663;48.996;8.334;2022-10-13T03:50:51;4.38;;;2.47;;
19059;SDS011;9663;48.996;8.334;2022-10-13T03:53:17;4.78;;;2.28;;
19059;SDS011;9663;48.996;8.334;2022-10-13T03:55:47;4.60;;;2.10;;
19059;SDS011;9663;48.996;8.334;2022-10-13T03:58:14;4.90;;;2.05;;
19059;SDS011;9663;48.996;8.334;2022-10-13T04:00:40;4.43;;;2.25;;
19059;SDS011;9663;48.996;8.334;2022-10-13T04:03:06;4.47;;;2.08;;
19059;SDS011;9663;48.996;8.334;2022-10-13T04:05:32;5.20;;;2.08;;
19059;SDS011;9663;48.996;8.334;2022-10-13T04:07:58;7.15;;;2.33;;
19059;SDS011;9663;48.996;8.334;2022-10-13T04:10:24;5.90;;;2.40;;
19059;SDS011;9663;48.996;8.334;2022-10-13T04:12:50;10.88;;;3.05;;
19059;SDS011;9663;48.996;8.334;2022-10-13T04:15:15;5.22;;;2.40;;
19059;SDS011;9663;48.996;8.334;2022-10-13T04:17:41;4.40;;;2.30;;
19059;SDS011;9663;48.996;8.334;2022-10-13T04:20:07;5.63;;;2.22;;
19059;SDS011;9663;48.996;8.334;2022-10-13T04:22:33;4.38;;;2.17;;
19059;SDS011;9663;48.996;8.334;2022-10-13T04:24:59;5.80;;;2.60;;
19059;SDS011;9663;48.996;8.334;2022-10-13T04:27:24;4.93;;;2.35;;
19059;SDS011;9663;48.996;8.334;2022-10-13T04:29:51;4.68;;;2.20;;
19059;SDS011;9663;48.996;8.334;2022-10-13T04:32:17;4.97;;;2.15;;
19059;SDS011;9663;48.996;8.334;2022-10-13T04:34:43;4.97;;;2.28;;
19059;SDS011;9663;48.996;8.334;2022-10-13T04:37:09;6.03;;;2.55;;
19059;SDS011;9663;48.996;8.334;2022-10-13T04:39:35;6.15;;;2.35;;
19059;SDS011;9663;48.996;8.334;2022-10-13T04:42:00;4.80;;;2.33;;
19059;SDS011;9663;48.996;8.334;2022-10-13T04:44:26;4.55;;;2.40;;
19059;SDS011;9663;48.996;8.334;2022-10-13T04:46:52;4.78;;;2.60;;
19059;SDS011;9663;48.996;8.334;2022-10-13T04:49:17;4.85;;;2.53;;
19059;SDS011;9663;48.996;8.334;2022-10-13T04:51:43;4.72;;;2.30;;
19059;SDS011;9663;48.996;8.334;2022-10-13T04:54:12;5.82;;;2.35;;
19059;SDS011;9663;48.996;8.334;2022-10-13T04:56:45;4.60;;;2.42;;
19059;SDS011;9663;48.996;8.334;2022-10-13T04:59:11;5.20;;;2.38;;
19059;SDS011;9663;48.996;8.334;2022-10-13T05:01:36;4.90;;;2.30;;
19059;SDS011;9663;48.996;8.334;2022-10-13T05:04:03;5.45;;;2.83;;
19059;SDS011;9663;48.996;8.334;2022-10-13T05:06:34;4.85;;;2.00;;
19059;SDS011;9663;48.996;8.334;2022-10-13T05:09:03;4.90;;;2.60;;
19059;SDS011;9663;48.996;8.334;2022-10-13T05:11:29;4.85;;;2.47;;
19059;SDS011;9663;48.996;8.334;2022-10-13T05:13:56;5.22;;;2.50;;
19059;SDS011;9663;48.996;8.334;2022-10-13T05:16:23;4.93;;;2.58;;
19059;SDS011;9663;48.996;8.334;2022-10-13T05:18:50;5.82;;;2.65;;
19059;SDS011;9663;48.996;8.334;2022-10-13T05:21:20;5.47;;;2.53;;
19059;SDS011;9663;48.996;8.334;2022-10-13T05:23:49;5.82;;;3.08;;
19059;SDS011;9663;48.996;8.334;2022-10-13T05:26:21;5.63;;;2.90;;
19059;SDS011;9663;48.996;8.334;2022-10-13T05:28:56;7.07;;;3.03;;
19059;SDS011;9663;48.996;8.334;2022-10-13T05:31:25;5.20;;;2.67;;
19059;SDS011;9663;48.996;8.334;2022-10-13T05:33:53;5.30;;;2.67;;
19059;SDS011;9663;48.996;8.334;2022-10-13T05:36:21;5.63;;;2.28;;
19059;SDS011;9663;48.996;8.334;2022-10-13T05:38:50;5.10;;;2.22;;
19059;SDS011;9663;48.996;8.334;2022-10-13T05:41:19;4.78;;;2.58;;
19059;SDS011;9663;48.996;8.334;2022-10-13T05:43:47;6.45;;;2.90;;
19059;SDS011;9663;48.996;8.334;2022-10-13T05:46:21;5.63;;;2.58;;
19059;SDS011;9663;48.996;8.334;2022-10-13T05:48:47;4.88;;;2.20;;
19059;SDS011;9663;48.996;8.334;2022-10-13T05:51:24;5.13;;;2.50;;
19059;SDS011;9663;48.996;8.334;2022-10-13T05:54:06;5.18;;;2.42;;
19059;SDS011;9663;48.996;8.334;2022-10-13T05:56:55;4.53;;;2.42;;
19059;SDS011;9663;48.996;8.334;2022-10-13T05:59:26;7.15;;;2.70;;
19059;SDS011;9663;48.996;8.334;2022-10-13T06:01:58;8.20;;;3.10;;
19059;SDS011;9663;48.996;8.334;2022-10-13T06:04:29;6.00;;;2.30;;
19059;SDS011;9663;48.996;8.334;2022-10-13T06:07:01;5.32;;;2.70;;
19059;SDS011;9663;48.996;8.334;2022-10-13T06:09:30;6.07;;;2.42;;
19059;SDS011;9663;48.996;8.334;2022-10-13T06:11:59;5.03;;;2.38;;
19059;SDS011;9663;48.996;8.334;2022-10-13T06:14:25;6.18;;;2.67;;
19059;SDS011;9663;48.996;8.334;2022-10-13T06:16:51;4.53;;;2.58;;
19059;SDS011;9663;48.996;8.334;2022-10-13T06:19:16;5.50;;;2.60;;
19059;SDS011;9663;48.996;8.334;2022-10-13T06:21:42;4.32;;;2.15;;
19059;SDS011;9663;48.996;8.334;2022-10-13T06:24:08;5.30;;;2.80;;
19059;SDS011;9663;48.996;8.334;2022-10-13T06:26:33;4.75;;;2.42;;
19059;SDS011;9663;48.996;8.334;2022-10-13T06:28:59;5.80;;;2.88;;
19059;SDS011;9663;48.996;8.334;2022-10-13T06:31:25;4.60;;;2.25;;
19059;SDS011;9663;48.996;8.334;2022-10-13T06:33:51;4.40;;;2.05;;
19059;SDS011;9663;48.996;8.334;2022-10-13T06:36:16;5.13;;;2.55;;
19059;SDS011;9663;48.996;8.334;2022-10-13T06:38:42;4.65;;;2.30;;
19059;SDS011;9663;48.996;8.334;2022-10-13T06:41:07;5.15;;;2.47;;
19059;SDS011;9663;48.996;8.334;2022-10-13T06:43:33;5.30;;;2.60;;
19059;SDS011;9663;48.996;8.334;2022-10-13T06:45:59;4.68;;;2.70;;
19059;SDS011;9663;48.996;8.334;2022-10-13T06:48:26;5.30;;;2.70;;
19059;SDS011;9663;48.996;8.334;2022-10-13T06:50:52;5.28;;;2.63;;
19059;SDS011;9663;48.996;8.334;2022-10-13T06:53:18;5.30;;;2.58;;
19059;SDS011;9663;48.996;8.334;2022-10-13T06:55:44;5.60;;;2.72;;
19059;SDS011;9663;48.996;8.334;2022-10-13T06:58:10;6.05;;;2.75;;
19059;SDS011;9663;48.996;8.334;2022-10-13T07:00:36;5.15;;;2.40;;
19059;SDS011;9663;48.996;8.334;2022-10-13T07:03:05;5.20;;;2.63;;
19059;SDS011;9663;48.996;8.334;2022-10-13T07:05:30;6.38;;;2.50;;
19059;SDS011;9663;48.996;8.334;2022-10-13T07:07:56;5.72;;;2.38;;
19059;SDS011;9663;48.996;8.334;2022-10-13T07:10:22;7.80;;;2.95;;
19059;SDS011;9663;48.996;8.334;2022-10-13T07:12:47;7.78;;;2.85;;
19059;SDS011;9663;48.996;8.334;2022-10-13T07:15:13;5.65;;;2.75;;
19059;SDS011;9663;48.996;8.334;2022-10-13T07:17:39;5.25;;;2.75;;
19059;SDS011;9663;48.996;8.334;2022-10-13T07:20:04;5.38;;;2.88;;
19059;SDS011;9663;48.996;8.334;2022-10-13T07:22:31;5.68;;;3.00;;
19059;SDS011;9663;48.996;8.334;2022-10-13T07:24:57;7.20;;;2.70;;
19059;SDS011;9663;48.996;8.334;2022-10-13T07:27:22;5.63;;;2.60;;
19059;SDS011;9663;48.996;8.334;2022-10-13T07:29:48;5.07;;;2.70;;
19059;SDS011;9663;48.996;8.334;2022-10-13T07:32:14;4.80;;;2.55;;
19059;SDS011;9663;48.996;8.334;2022-10-13T07:34:40;5.07;;;2.53;;
19059;SDS011;9663;48.996;8.334;2022-10-13T07:37:06;5.70;;;2.97;;
19059;SDS011;9663;48.996;8.334;2022-10-13T07:39:32;7.07;;;2.60;;
19059;SDS011;9663;48.996;8.334;2022-10-13T07:41:58;5.45;;;2.78;;
19059;SDS011;9663;48.996;8.334;2022-10-13T07:44:24;6.40;;;2.85;;
19059;SDS011;9663;48.996;8.334;2022-10-13T07:46:50;7.35;;;3.03;;
19059;SDS011;9663;48.996;8.334;2022-10-13T07:49:15;4.63;;;2.60;;
19059;SDS011;9663;48.996;8.334;2022-10-13T07:51:42;6.45;;;3.00;;
19059;SDS011;9663;48.996;8.334;2022-10-13T07:54:08;6.85;;;3.05;;
19059;SDS011;9663;48.996;8.334;2022-10-13T07:56:34;5.82;;;2.90;;
19059;SDS011;9663;48.996;8.334;2022-10-13T07:59:00;6.03;;;2.83;;
19059;SDS011;9663;48.996;8.334;2022-10-13T08:01:26;9.25;;;3.10;;
19059;SDS011;9663;48.996;8.334;2022-10-13T08:03:53;6.05;;;3.20;;
19059;SDS011;9663;48.996;8.334;2022-10-13T08:06:20;5.60;;;3.00;;
19059;SDS011;9663;48.996;8.334;2022-10-13T08:08:46;6.82;;;3.63;;
19059;SDS011;9663;48.996;8.334;2022-10-13T08:11:12;7.22;;;2.88;;
19059;SDS011;9663;48.996;8.334;2022-10-13T08:13:40;7.60;;;3.55;;
19059;SDS011;9663;48.996;8.334;2022-10-13T08:16:06;7.30;;;3.00;;
19059;SDS011;9663;48.996;8.334;2022-10-13T08:18:32;5.82;;;3.20;;
19059;SDS011;9663;48.996;8.334;2022-10-13T08:21:00;5.50;;;3.17;;
19059;SDS011;9663;48.996;8.334;2022-10-13T08:23:27;6.82;;;3.10;;
19059;SDS011;9663;48.996;8.334;2022-10-13T08:25:53;7.00;;;3.17;;
19059;SDS011;9663;48.996;8.334;2022-10-13T08:28:24;5.43;;;3.28;;
19059;SDS011;9663;48.996;8.334;2022-10-13T08:30:54;5.70;;;3.10;;
19059;SDS011;9663;48.996;8.334;2022-10-13T08:33:24;5.50;;;3.10;;
19059;SDS011;9663;48.996;8.334;2022-10-13T08:35:51;7.05;;;2.97;;
19059;SDS011;9663;48.996;8.334;2022-10-13T08:38:17;5.07;;;2.72;;
19059;SDS011;9663;48.996;8.334;2022-10-13T08:40:47;8.13;;;4.60;;
19059;SDS011;9663;48.996;8.334;2022-10-13T08:43:16;7.88;;;4.72;;
19059;SDS011;9663;48.996;8.334;2022-10-13T08:45:50;8.23;;;4.38;;
19059;SDS011;9663;48.996;8.334;2022-10-13T08:48:21;7.00;;;4.35;;
19059;SDS011;9663;48.996;8.334;2022-10-13T08:50:58;7.05;;;4.13;;
19059;SDS011;9663;48.996;8.334;2022-10-13T08:53:36;8.48;;;4.38;;
19059;SDS011;9663;48.996;8.334;2022-10-13T08:56:25;7.63;;;4.28;;
19059;SDS011;9663;48.996;8.334;2022-10-13T08:58:55;7.45;;;4.07;;
19059;SDS011;9663;48.996;8.334;2022-10-13T09:01:23;7.47;;;3.65;;
19059;SDS011;9663;48.996;8.334;2022-10-13T09:09:30;5.97;;;3.50;;
19059;SDS011;9663;48.996;8.334;2022-10-13T09:11:56;7.43;;;3.75;;
19059;SDS011;9663;48.996;8.334;2022-10-13T09:14:24;5.88;;;3.75;;
19059;SDS011;9663;48.996;8.334;2022-10-13T09:16:56;7.25;;;3.53;;
19059;SDS011;9663;48.996;8.334;2022-10-13T09:19:39;7.45;;;3.88;;
19059;SDS011;9663;48.996;8.334;2022-10-13T09:22:18;7.55;;;3.95;;
19059;SDS011;9663;48.996;8.334;2022-10-13T09:30:33;10.65;;;4.28;;
19059;SDS011;9663;48.996;8.334;2022-10-13T09:35:46;9.93;;;4.13;;
19059;SDS011;9663;48.996;8.334;2022-10-13T09:38:35;7.47;;;3.83;;
19059;SDS011;9663;48.996;8.334;2022-10-13T09:41:03;7.72;;;4.30;;
19059;SDS011;9663;48.996;8.334;2022-10-13T09:49:06;7.50;;;4.15;;
19059;SDS011;9663;48.996;8.334;2022-10-13T09:52:02;7.07;;;3.85;;
19059;SDS011;9663;48.996;8.334;2022-10-13T09:54:48;7.93;;;3.97;;
19059;SDS011;9663;48.996;8.334;2022-10-13T09:57:23;7.38;;;4.40;;
19059;SDS011;9663;48.996;8.334;2022-10-13T10:00:25;9.35;;;3.92;;
19059;SDS011;9663;48.996;8.334;2022-10-13T10:08:20;6.30;;;3.90;;
19059;SDS011;9663;48.996;8.334;2022-10-13T10:10:59;7.38;;;4.40;;
19059;SDS011;9663;48.996;8.334;2022-10-13T10:13:29;8.20;;;3.65;;
19059;SDS011;9663;48.996;8.334;2022-10-13T10:18:38;7.43;;;3.67;;
19059;SDS011;9663;48.996;8.334;2022-10-13T10:23:56;7.07;;;3.75;;
19059;SDS011;9663;48.996;8.334;2022-10-13T10:26:54;8.82;;;4.55;;
19059;SDS011;9663;48.996;8.334;2022-10-13T10:29:49;6.85;;;4.03;;
19059;SDS011;9663;48.996;8.334;2022-10-13T10:38:44;7.13;;;4.13;;
19059;SDS011;9663;48.996;8.334;2022-10-13T10:41:25;7.03;;;3.88;;
19059;SDS011;9663;48.996;8.334;2022-10-13T10:43:59;9.07;;;4.75;;
19059;SDS011;9663;48.996;8.334;2022-10-13T10:46:35;8.55;;;4.65;;
19059;SDS011;9663;48.996;8.334;2022-10-13T10:49:25;7.70;;;4.60;;
19059;SDS011;9663;48.996;8.334;2022-10-13T10:52:00;9.23;;;4.88;;
19059;SDS011;9663;48.996;8.334;2022-10-13T10:54:48;7.75;;;4.57;;
19059;SDS011;9663;48.996;8.334;2022-10-13T11:00:44;7.35;;;4.40;;
19059;SDS011;9663;48.996;8.334;2022-10-13T11:06:54;7.03;;;3.92;;
19059;SDS011;9663;48.996;8.334;2022-10-13T11:12:33;8.07;;;4.35;;
19059;SDS011;9663;48.996;8.334;2022-10-13T11:15:23;6.68;;;3.67;;
19059;SDS011;9663;48.996;8.334;2022-10-13T11:17:52;7.35;;;4.30;;
19059;SDS011;9663;48.996;8.334;2022-10-13T11:31:48;7.70;;;4.00;;
19059;SDS011;9663;48.996;8.334;2022-10-13T11:34:24;6.10;;;3.78;;
19059;SDS011;9663;48.996;8.334;2022-10-13T11:36:59;7.20;;;4.07;;
19059;SDS011;9663;48.996;8.334;2022-10-13T11:39:35;9.00;;;4.55;;
19059;SDS011;9663;48.996;8.334;2022-10-13T11:46:13;6.90;;;3.80;;
19059;SDS011;9663;48.996;8.334;2022-10-13T11:54:22;9.35;;;3.97;;
19059;SDS011;9663;48.996;8.334;2022-10-13T11:57:21;7.10;;;3.90;;
19059;SDS011;9663;48.996;8.334;2022-10-13T11:59:51;10.80;;;4.75;;
19059;SDS011;9663;48.996;8.334;2022-10-13T12:02:20;10.95;;;6.15;;
19059;SDS011;9663;48.996;8.334;2022-10-13T12:07:50;7.68;;;4.45;;
19059;SDS011;9663;48.996;8.334;2022-10-13T12:10:23;7.60;;;4.40;;
19059;SDS011;9663;48.996;8.334;2022-10-13T12:12:55;7.43;;;4.10;;
19059;SDS011;9663;48.996;8.334;2022-10-13T12:15:39;8.20;;;4.10;;
19059;SDS011;9663;48.996;8.334;2022-10-13T12:18:21;7.68;;;3.88;;
19059;SDS011;9663;48.996;8.334;2022-10-13T12:20:57;8.75;;;3.78;;
19059;SDS011;9663;48.996;8.334;2022-10-13T12:23:35;7.90;;;3.83;;
19059;SDS011;9663;48.996;8.334;2022-10-13T12:26:02;7.78;;;3.80;;
19059;SDS011;9663;48.996;8.334;2022-10-13T12:28:30;8.98;;;3.97;;
19059;SDS011;9663;48.996;8.334;2022-10-13T12:31:25;8.32;;;4.18;;
19059;SDS011;9663;48.996;8.334;2022-10-13T12:34:01;9.82;;;3.67;;
19059;SDS011;9663;48.996;8.334;2022-10-13T12:36:31;10.07;;;3.95;;
19059;SDS011;9663;48.996;8.334;2022-10-13T12:39:01;8.80;;;3.58;;
19059;SDS011;9663;48.996;8.334;2022-10-13T12:41:32;8.27;;;4.32;;
19059;SDS011;9663;48.996;8.334;2022-10-13T12:44:06;7.80;;;4.57;;
19059;SDS011;9663;48.996;8.334;2022-10-13T12:46:44;9.13;;;4.05;;
19059;SDS011;9663;48.996;8.334;2022-10-13T12:49:12;8.25;;;4.45;;
19059;SDS011;9663;48.996;8.334;2022-10-13T12:51:47;7.05;;;3.78;;
19059;SDS011;9663;48.996;8.334;2022-10-13T12:54:26;7.22;;;4.10;;
19059;SDS011;9663;48.996;8.334;2022-10-13T12:56:56;8.07;;;4.18;;
19059;SDS011;9663;48.996;8.334;2022-10-13T12:59:28;6.90;;;3.67;;
19059;SDS011;9663;48.996;8.334;2022-10-13T13:02:02;8.50;;;4.18;;
19059;SDS011;9663;48.996;8.334;2022-10-13T13:04:44;7.15;;;3.30;;
19059;SDS011;9663;48.996;8.334;2022-10-13T13:10:01;6.45;;;3.30;;
19059;SDS011;9663;48.996;8.334;2022-10-13T13:12:40;8.02;;;4.00;;
19059;SDS011;9663;48.996;8.334;2022-10-13T13:20:54;7.50;;;3.75;;
19059;SDS011;9663;48.996;8.334;2022-10-13T13:23:21;11.35;;;3.53;;
19059;SDS011;9663;48.996;8.334;2022-10-13T13:25:58;6.60;;;3.65;;
19059;SDS011;9663;48.996;8.334;2022-10-13T13:28:34;7.53;;;3.58;;
19059;SDS011;9663;48.996;8.334;2022-10-13T13:31:00;7.47;;;3.70;;
19059;SDS011;9663;48.996;8.334;2022-10-13T13:33:25;7.60;;;3.50;;
19059;SDS011;9663;48.996;8.334;2022-10-13T13:35:52;8.35;;;4.00;;
19059;SDS011;9663;48.996;8.334;2022-10-13T13:38:18;9.23;;;5.70;;
19059;SDS011;9663;48.996;8.334;2022-10-13T13:40:44;7.32;;;3.97;;
19059;SDS011;9663;48.996;8.334;2022-10-13T13:43:10;6.70;;;3.60;;
19059;SDS011;9663;48.996;8.334;2022-10-13T13:45:35;6.85;;;3.58;;
19059;SDS011;9663;48.996;8.334;2022-10-13T13:48:01;6.82;;;3.83;;
19059;SDS011;9663;48.996;8.334;2022-10-13T13:50:31;5.57;;;3.38;;
19059;SDS011;9663;48.996;8.334;2022-10-13T13:53:00;5.38;;;3.05;;
19059;SDS011;9663;48.996;8.334;2022-10-13T13:55:27;5.85;;;2.78;;
19059;SDS011;9663;48.996;8.334;2022-10-13T13:57:54;7.30;;;3.60;;
19059;SDS011;9663;48.996;8.334;2022-10-13T14:00:20;6.28;;;3.45;;
19059;SDS011;9663;48.996;8.334;2022-10-13T14:02:47;8.82;;;3.85;;
19059;SDS011;9663;48.996;8.334;2022-10-13T14:05:13;7.28;;;3.05;;
19059;SDS011;9663;48.996;8.334;2022-10-13T14:07:39;5.95;;;2.97;;
19059;SDS011;9663;48.996;8.334;2022-10-13T14:10:06;7.05;;;3.17;;
19059;SDS011;9663;48.996;8.334;2022-10-13T14:12:34;5.60;;;3.22;;
19059;SDS011;9663;48.996;8.334;2022-10-13T14:15:00;7.60;;;3.42;;
19059;SDS011;9663;48.996;8.334;2022-10-13T14:17:26;6.72;;;3.67;;
19059;SDS011;9663;48.996;8.334;2022-10-13T14:19:52;5.93;;;3.00;;
19059;SDS011;9663;48.996;8.334;2022-10-13T14:22:19;6.57;;;3.35;;
19059;SDS011;9663;48.996;8.334;2022-10-13T14:24:45;7.03;;;3.40;;
19059;SDS011;9663;48.996;8.334;2022-10-13T14:27:11;8.40;;;3.10;;
19059;SDS011;9663;48.996;8.334;2022-10-13T14:29:36;6.65;;;3.00;;
19059;SDS011;9663;48.996;8.334;2022-10-13T14:32:02;6.15;;;2.60;;
19059;SDS011;9663;48.996;8.334;2022-10-13T14:34:28;5.68;;;3.13;;
19059;SDS011;9663;48.996;8.334;2022-10-13T14:36:54;7.78;;;3.75;;
19059;SDS011;9663;48.996;8.334;2022-10-13T14:39:19;6.25;;;3.22;;
19059;SDS011;9663;48.996;8.334;2022-10-13T14:41:46;6.25;;;2.92;;
19059;SDS011;9663;48.996;8.334;2022-10-13T14:44:16;4.88;;;2.58;;
19059;SDS011;9663;48.996;8.334;2022-10-13T14:46:45;6.00;;;2.95;;
19059;SDS011;9663;48.996;8.334;2022-10-13T14:49:12;6.78;;;3.05;;
19059;SDS011;9663;48.996;8.334;2022-10-13T14:51:38;5.43;;;2.90;;
19059;SDS011;9663;48.996;8.334;2022-10-13T14:54:04;5.72;;;2.95;;
19059;SDS011;9663;48.996;8.334;2022-10-13T14:56:37;9.45;;;3.03;;
19059;SDS011;9663;48.996;8.334;2022-10-13T14:59:03;6.13;;;2.83;;
19059;SDS011;9663;48.996;8.334;2022-10-13T15:01:31;7.20;;;2.80;;
19059;SDS011;9663;48.996;8.334;2022-10-13T15:03:59;8.23;;;3.25;;
19059;SDS011;9663;48.996;8.334;2022-10-13T15:06:26;6.88;;;2.85;;
19059;SDS011;9663;48.996;8.334;2022-10-13T15:08:52;5.68;;;2.90;;
19059;SDS011;9663;48.996;8.334;2022-10-13T15:11:18;5.47;;;2.92;;
19059;SDS011;9663;48.996;8.334;2022-10-13T15:13:48;8.75;;;3.35;;
19059;SDS011;9663;48.996;8.334;2022-10-13T15:16:18;5.90;;;3.25;;
19059;SDS011;9663;48.996;8.334;2022-10-13T15:18:51;5.68;;;3.03;;
19059;SDS011;9663;48.996;8.334;2022-10-13T15:21:17;5.55;;;2.88;;
19059;SDS011;9663;48.996;8.334;2022-10-13T15:23:44;5.53;;;2.75;;
19059;SDS011;9663;48.996;8.334;2022-10-13T15:26:12;6.25;;;2.90;;
19059;SDS011;9663;48.996;8.334;2022-10-13T15:28:41;7.70;;;3.20;;
19059;SDS011;9663;48.996;8.334;2022-10-13T15:31:10;5.82;;;2.80;;
19059;SDS011;9663;48.996;8.334;2022-10-13T15:33:38;6.07;;;2.90;;
19059;SDS011;9663;48.996;8.334;2022-10-13T15:36:10;7.13;;;2.95;;
19059;SDS011;9663;48.996;8.334;2022-10-13T15:38:36;5.40;;;2.90;;
19059;SDS011;9663;48.996;8.334;2022-10-13T15:41:03;5.28;;;3.10;;
19059;SDS011;9663;48.996;8.334;2022-10-13T15:43:30;5.70;;;2.80;;
19059;SDS011;9663;48.996;8.334;2022-10-13T15:46:00;4.95;;;2.53;;
19059;SDS011;9663;48.996;8.334;2022-10-13T15:48:36;6.00;;;2.80;;
19059;SDS011;9663;48.996;8.334;2022-10-13T15:51:08;5.03;;;2.65;;
19059;SDS011;9663;48.996;8.334;2022-10-13T15:53:38;5.35;;;2.53;;
19059;SDS011;9663;48.996;8.334;2022-10-13T15:56:04;6.03;;;2.92;;
19059;SDS011;9663;48.996;8.334;2022-10-13T15:58:30;5.38;;;2.80;;
19059;SDS011;9663;48.996;8.334;2022-10-13T16:00:59;6.00;;;2.60;;
19059;SDS011;9663;48.996;8.334;2022-10-13T16:03:24;8.43;;;3.08;;
19059;SDS011;9663;48.996;8.334;2022-10-13T16:05:53;5.10;;;2.25;;
19059;SDS011;9663;48.996;8.334;2022-10-13T16:08:19;4.80;;;2.55;;
19059;SDS011;9663;48.996;8.334;2022-10-13T16:10:45;6.30;;;2.85;;
19059;SDS011;9663;48.996;8.334;2022-10-13T16:13:12;5.50;;;2.58;;
19059;SDS011;9663;48.996;8.334;2022-10-13T16:15:39;7.13;;;2.50;;
19059;SDS011;9663;48.996;8.334;2022-10-13T16:18:06;6.28;;;2.80;;
19059;SDS011;9663;48.996;8.334;2022-10-13T16:20:32;5.10;;;2.58;;
19059;SDS011;9663;48.996;8.334;2022-10-13T16:23:01;5.82;;;2.70;;
19059;SDS011;9663;48.996;8.334;2022-10-13T16:25:28;6.15;;;2.70;;
19059;SDS011;9663;48.996;8.334;2022-10-13T16:27:56;5.78;;;2.50;;
19059;SDS011;9663;48.996;8.334;2022-10-13T16:30:23;5.32;;;2.97;;
19059;SDS011;9663;48.996;8.334;2022-10-13T16:32:48;6.07;;;2.70;;
19059;SDS011;9663;48.996;8.334;2022-10-13T16:35:14;6.15;;;2.60;;
19059;SDS011;9663;48.996;8.334;2022-10-13T16:37:40;5.10;;;2.63;;
19059;SDS011;9663;48.996;8.334;2022-10-13T16:40:06;6.00;;;2.42;;
19059;SDS011;9663;48.996;8.334;2022-10-13T16:42:32;5.47;;;2.55;;
19059;SDS011;9663;48.996;8.334;2022-10-13T16:44:57;6.43;;;2.60;;
19059;SDS011;9663;48.996;8.334;2022-10-13T16:47:23;7.55;;;2.83;;
19059;SDS011;9663;48.996;8.334;2022-10-13T16:49:48;6.32;;;3.30;;
19059;SDS011;9663;48.996;8.334;2022-10-13T16:52:14;9.15;;;3.75;;
19059;SDS011;9663;48.996;8.334;2022-10-13T16:54:40;8.57;;;3.72;;
19059;SDS011;9663;48.996;8.334;2022-10-13T16:57:05;9.25;;;3.90;;